^^
Station Historical Data
Daily Summary for June 14, 2017 Units:  Both    English   Metric
« Previous Day
Next Day »
Daily Weekly Monthly Yearly Custom
  High: Low: Average:
Temperature: 73.9 °F /  23.3 °C 43.0 °F /  6.1 °C 57.5 °F /  14.2 °C
Dew Point: 38.5 °F /  3.6 °C 33.1 °F /  0.6 °C 35.2 °F /  1.8 °C
Humidity: 71% 24% 46%
Wind Speed: 8.1mph /  13km/h - 0.6mph /  1km/h
Wind Gust: 9.0mph /  14.5km/h - -
Wind- - SW
Pressure: 30.32 in /  1026.6 hPa 30.22 in /  1023.2 hPa -
Precipitation: 0.00 in /  0 mm    
Historical Graphs
 
 
Tabular Data for June 14, 2017
Time Temperature Dew Point Pressure Wind Wind Speed Wind Gust Humidity Rainfall Rate (Hourly) solar Conditions
00:05 50.0 °F /  10 °C 35.4 °F /  1.9 °C 30.28in /  1025.3hPa Calm     57% 0.00in /  0mm 0.0 W/m2
00:11 49.8 °F /  9.9 °C 35.2 °F /  1.8 °C 30.28in /  1025.3hPa Calm   2.0mph /  3.2km/h 57% 0.00in /  0mm 0.0 W/m2
00:17 49.6 °F /  9.8 °C 35.1 °F /  1.7 °C 30.28in /  1025.3hPa Calm   3.0mph /  4.8km/h 57% 0.00in /  0mm 0.0 W/m2
00:23 49.5 °F /  9.7 °C 34.9 °F /  1.6 °C 30.28in /  1025.3hPa Calm   2.0mph /  3.2km/h 57% 0.00in /  0mm 0.0 W/m2
00:29 49.5 °F /  9.7 °C 35.2 °F /  1.8 °C 30.28in /  1025.3hPa Calm   1.0mph /  1.6km/h 58% 0.00in /  0mm 0.0 W/m2
00:36 49.5 °F /  9.7 °C 35.2 °F /  1.8 °C 30.28in /  1025.3hPa Calm   1.0mph /  1.6km/h 58% 0.00in /  0mm 0.0 W/m2
00:42 49.5 °F /  9.7 °C 35.2 °F /  1.8 °C 30.28in /  1025.3hPa Calm   1.0mph /  1.6km/h 58% 0.00in /  0mm 0.0 W/m2
01:00 49.3 °F /  9.6 °C 35.1 °F /  1.7 °C 30.28in /  1025.3hPa Calm   1.0mph /  1.6km/h 58% 0.00in /  0mm 0.0 W/m2
01:06 48.9 °F /  9.4 °C 35.2 °F /  1.8 °C 30.28in /  1025.3hPa Calm     59% 0.00in /  0mm 0.0 W/m2
01:12 48.7 °F /  9.3 °C 35.1 °F /  1.7 °C 30.28in /  1025.3hPa Calm   1.0mph /  1.6km/h 59% 0.00in /  0mm 0.0 W/m2
01:18 48.6 °F /  9.2 °C 34.9 °F /  1.6 °C 30.27in /  1024.9hPa Calm     59% 0.00in /  0mm 0.0 W/m2
01:24 48.6 °F /  9.2 °C 35.2 °F /  1.8 °C 30.27in /  1024.9hPa Calm     60% 0.00in /  0mm 0.0 W/m2
01:30 48.4 °F /  9.1 °C 35.1 °F /  1.7 °C 30.27in /  1024.9hPa Calm     60% 0.00in /  0mm 0.0 W/m2
01:36 48.0 °F /  8.9 °C 35.2 °F /  1.8 °C 30.27in /  1024.9hPa Calm     61% 0.00in /  0mm 0.0 W/m2
01:42 48.0 °F /  8.9 °C 35.2 °F /  1.8 °C 30.27in /  1024.9hPa Calm   1.0mph /  1.6km/h 61% 0.00in /  0mm 0.0 W/m2
01:48 48.0 °F /  8.9 °C 35.2 °F /  1.8 °C 30.27in /  1024.9hPa Calm   2.0mph /  3.2km/h 61% 0.00in /  0mm 0.0 W/m2
01:54 48.0 °F /  8.9 °C 35.2 °F /  1.8 °C 30.27in /  1024.9hPa Calm   1.0mph /  1.6km/h 61% 0.00in /  0mm 0.0 W/m2
02:00 48.0 °F /  8.9 °C 35.2 °F /  1.8 °C 30.27in /  1024.9hPa Calm     61% 0.00in /  0mm 0.0 W/m2
02:06 48.0 °F /  8.9 °C 35.2 °F /  1.8 °C 30.27in /  1024.9hPa Calm     61% 0.00in /  0mm 0.0 W/m2
02:12 48.0 °F /  8.9 °C 35.2 °F /  1.8 °C 30.27in /  1024.9hPa Calm   1.0mph /  1.6km/h 61% 0.00in /  0mm 0.0 W/m2
02:18 48.0 °F /  8.9 °C 35.2 °F /  1.8 °C 30.27in /  1024.9hPa Calm   1.0mph /  1.6km/h 61% 0.00in /  0mm 0.0 W/m2
02:24 47.8 °F /  8.8 °C 35.1 °F /  1.7 °C 30.27in /  1024.9hPa Calm     61% 0.00in /  0mm 0.0 W/m2
02:30 47.7 °F /  8.7 °C 35.2 °F /  1.8 °C 30.27in /  1024.9hPa Calm     62% 0.00in /  0mm 0.0 W/m2
02:36 47.5 °F /  8.6 °C 35.1 °F /  1.7 °C 30.27in /  1024.9hPa Calm     62% 0.00in /  0mm 0.0 W/m2
02:42 47.5 °F /  8.6 °C 35.1 °F /  1.7 °C 30.27in /  1024.9hPa Calm   1.0mph /  1.6km/h 62% 0.00in /  0mm 0.0 W/m2
02:48 47.3 °F /  8.5 °C 34.9 °F /  1.6 °C 30.27in /  1024.9hPa Calm   2.0mph /  3.2km/h 62% 0.00in /  0mm 0.0 W/m2
02:54 47.3 °F /  8.5 °C 34.9 °F /  1.6 °C 30.27in /  1024.9hPa Calm   1.0mph /  1.6km/h 62% 0.00in /  0mm 0.0 W/m2
03:00 47.1 °F /  8.4 °C 34.7 °F /  1.5 °C 30.27in /  1024.9hPa Calm     62% 0.00in /  0mm 0.0 W/m2
03:06 46.8 °F /  8.2 °C 34.9 °F /  1.6 °C 30.27in /  1024.9hPa Calm     63% 0.00in /  0mm 0.0 W/m2
03:12 46.4 °F /  8 °C 34.9 °F /  1.6 °C 30.27in /  1024.9hPa Calm     64% 0.00in /  0mm 0.0 W/m2
03:18 46.2 °F /  7.9 °C 34.7 °F /  1.5 °C 30.27in /  1024.9hPa Calm     64% 0.00in /  0mm 0.0 W/m2
03:24 46.2 °F /  7.9 °C 35.1 °F /  1.7 °C 30.27in /  1024.9hPa Calm     65% 0.00in /  0mm 0.0 W/m2
03:30 46.2 °F /  7.9 °C 34.7 °F /  1.5 °C 30.27in /  1024.9hPa Calm   2.0mph /  3.2km/h 64% 0.00in /  0mm 0.0 W/m2
03:36 46.6 °F /  8.1 °C 35.1 °F /  1.7 °C 30.27in /  1024.9hPa Calm     64% 0.00in /  0mm 0.0 W/m2
03:42 46.6 °F /  8.1 °C 35.1 °F /  1.7 °C 30.27in /  1024.9hPa Calm     64% 0.00in /  0mm 0.0 W/m2
03:48 46.6 °F /  8.1 °C 34.7 °F /  1.5 °C 30.27in /  1024.9hPa Calm     63% 0.00in /  0mm 0.0 W/m2
03:54 46.6 °F /  8.1 °C 35.1 °F /  1.7 °C 30.27in /  1024.9hPa Calm     64% 0.00in /  0mm 0.0 W/m2
04:00 46.6 °F /  8.1 °C 35.1 °F /  1.7 °C 30.27in /  1024.9hPa Calm     64% 0.00in /  0mm 0.0 W/m2
04:06 46.2 °F /  7.9 °C 34.7 °F /  1.5 °C 30.27in /  1024.9hPa Calm   1.0mph /  1.6km/h 64% 0.00in /  0mm 0.0 W/m2
04:12 46.2 °F /  7.9 °C 34.7 °F /  1.5 °C 30.26in /  1024.6hPa Calm   4.0mph /  6.4km/h 64% 0.00in /  0mm 0.0 W/m2
04:18 46.2 °F /  7.9 °C 34.7 °F /  1.5 °C 30.27in /  1024.9hPa Calm     64% 0.00in /  0mm 0.0 W/m2
04:24 46.0 °F /  7.8 °C 34.5 °F /  1.4 °C 30.27in /  1024.9hPa Calm   1.0mph /  1.6km/h 64% 0.00in /  0mm 0.0 W/m2
04:30 46.0 °F /  7.8 °C 34.9 °F /  1.6 °C 30.27in /  1024.9hPa Calm     65% 0.00in /  0mm 0.0 W/m2
04:42 45.7 °F /  7.6 °C 34.5 °F /  1.4 °C 30.27in /  1024.9hPa Calm     65% 0.00in /  0mm 0.0 W/m2
04:48 45.3 °F /  7.4 °C 34.7 °F /  1.5 °C 30.27in /  1024.9hPa Calm   1.0mph /  1.6km/h 66% 0.00in /  0mm 0.0 W/m2
04:54 45.3 °F /  7.4 °C 34.7 °F /  1.5 °C 30.27in /  1024.9hPa Calm     66% 0.00in /  0mm 0.0 W/m2
05:00 45.1 °F /  7.3 °C 34.9 °F /  1.6 °C 30.26in /  1024.6hPa Calm   3.0mph /  4.8km/h 67% 0.00in /  0mm 0.0 W/m2
05:06 45.1 °F /  7.3 °C 34.9 °F /  1.6 °C 30.27in /  1024.9hPa Calm   2.0mph /  3.2km/h 67% 0.00in /  0mm 0.0 W/m2
05:12 45.3 °F /  7.4 °C 34.7 °F /  1.5 °C 30.27in /  1024.9hPa Calm   2.0mph /  3.2km/h 66% 0.00in /  0mm 0.0 W/m2
05:18 45.5 °F /  7.5 °C 34.9 °F /  1.6 °C 30.27in /  1024.9hPa Calm   2.0mph /  3.2km/h 66% 0.00in /  0mm 0.0 W/m2
05:24 45.3 °F /  7.4 °C 34.3 °F /  1.3 °C 30.27in /  1024.9hPa Calm     65% 0.00in /  0mm 0.0 W/m2
05:30 44.8 °F /  7.1 °C 34.2 °F /  1.2 °C 30.27in /  1024.9hPa Calm     66% 0.00in /  0mm 0.0 W/m2
05:36 44.4 °F /  6.9 °C 34.2 °F /  1.2 °C 30.27in /  1024.9hPa Calm   1.0mph /  1.6km/h 67% 0.00in /  0mm 0.0 W/m2
05:42 44.4 °F /  6.9 °C 34.5 °F /  1.4 °C 30.27in /  1024.9hPa Calm     68% 0.00in /  0mm 0.0 W/m2
05:48 44.4 °F /  6.9 °C 34.5 °F /  1.4 °C 30.28in /  1025.3hPa Calm     68% 0.00in /  0mm 0.0 W/m2
05:54 44.2 °F /  6.8 °C 34.3 °F /  1.3 °C 30.28in /  1025.3hPa Calm   1.0mph /  1.6km/h 68% 0.00in /  0mm 0.0 W/m2
06:00 44.2 °F /  6.8 °C 34.3 °F /  1.3 °C 30.28in /  1025.3hPa Calm     68% 0.00in /  0mm 0.0 W/m2
06:06 44.4 °F /  6.9 °C 34.2 °F /  1.2 °C 30.28in /  1025.3hPa Calm   1.0mph /  1.6km/h 67% 0.00in /  0mm 0.0 W/m2
06:12 44.2 °F /  6.8 °C 34.0 °F /  1.1 °C 30.28in /  1025.3hPa Calm     67% 0.00in /  0mm 0.0 W/m2
06:18 43.9 °F /  6.6 °C 34.0 °F /  1.1 °C 30.29in /  1025.6hPa Calm     68% 0.00in /  0mm 0.0 W/m2
06:24 43.5 °F /  6.4 °C 33.6 °F /  0.9 °C 30.29in /  1025.6hPa Calm     68% 0.00in /  0mm 0.0 W/m2
06:30 43.2 °F /  6.2 °C 33.6 °F /  0.9 °C 30.29in /  1025.6hPa Calm     69% 0.00in /  0mm 0.0 W/m2
06:32 43.2 °F /  6.2 °C 34.0 °F /  1.1 °C 30.29in /  1025.6hPa Calm     70% 0.00in /  0mm 5.0 W/m2
06:38 43.0 °F /  6.1 °C 34.2 °F /  1.2 °C 30.30in /  1026hPa Calm   1.0mph /  1.6km/h 71% 0.00in /  0mm 7.0 W/m2
06:44 43.0 °F /  6.1 °C 34.2 °F /  1.2 °C 30.30in /  1026hPa Calm     71% 0.00in /  0mm 9.0 W/m2
06:50 43.0 °F /  6.1 °C 33.8 °F /  1 °C 30.30in /  1026hPa Calm     70% 0.00in /  0mm 11.0 W/m2
06:56 43.0 °F /  6.1 °C 33.8 °F /  1 °C 30.30in /  1026hPa Calm     70% 0.00in /  0mm 12.0 W/m2
07:04 43.0 °F /  6.1 °C 34.2 °F /  1.2 °C 30.30in /  1026hPa Calm     71% 0.00in /  0mm 14.0 W/m2
07:10 43.2 °F /  6.2 °C 34.3 °F /  1.3 °C 30.30in /  1026hPa Calm     71% 0.00in /  0mm 16.0 W/m2
07:16 43.5 °F /  6.4 °C 34.7 °F /  1.5 °C 30.30in /  1026hPa Calm   1.0mph /  1.6km/h 71% 0.00in /  0mm 18.0 W/m2
07:23 44.2 °F /  6.8 °C 35.1 °F /  1.7 °C 30.31in /  1026.3hPa Calm   1.0mph /  1.6km/h 70% 0.00in /  0mm 19.0 W/m2
07:31 45.1 °F /  7.3 °C 35.6 °F /  2 °C 30.31in /  1026.3hPa Calm     69% 0.00in /  0mm 21.0 W/m2
07:37 46.0 °F /  7.8 °C 36.1 °F /  2.3 °C 30.32in /  1026.6hPa Calm   1.0mph /  1.6km/h 68% 0.00in /  0mm 21.0 W/m2
07:43 46.8 °F /  8.2 °C 36.3 °F /  2.4 °C 30.32in /  1026.6hPa Calm   1.0mph /  1.6km/h 67% 0.00in /  0mm 23.0 W/m2
07:49 47.3 °F /  8.5 °C 36.9 °F /  2.7 °C 30.32in /  1026.6hPa Calm   1.0mph /  1.6km/h 67% 0.00in /  0mm 26.0 W/m2
07:55 48.4 °F /  9.1 °C 37.6 °F /  3.1 °C 30.32in /  1026.6hPa Calm     66% 0.00in /  0mm 243.0 W/m2
07:57 48.7 °F /  9.3 °C 37.0 °F /  2.8 °C 30.32in /  1026.6hPa Calm     64% 0.00in /  0mm 255.0 W/m2
08:03 50.7 °F /  10.4 °C 37.8 °F /  3.2 °C 30.32in /  1026.6hPa Calm   1.0mph /  1.6km/h 61% 0.00in /  0mm 285.0 W/m2
08:09 53.1 °F /  11.7 °C 38.3 °F /  3.5 °C 30.31in /  1026.3hPa Calm   2.0mph /  3.2km/h 57% 0.00in /  0mm 304.0 W/m2
08:15 55.6 °F /  13.1 °C 38.3 °F /  3.5 °C 30.31in /  1026.3hPa Calm   1.0mph /  1.6km/h 52% 0.00in /  0mm 323.0 W/m2
08:21 57.7 °F /  14.3 °C 37.6 °F /  3.1 °C 30.31in /  1026.3hPa Calm   2.0mph /  3.2km/h 47% 0.00in /  0mm 345.0 W/m2
08:27 59.4 °F /  15.2 °C 37.9 °F /  3.3 °C 30.31in /  1026.3hPa Calm   1.0mph /  1.6km/h 45% 0.00in /  0mm 364.0 W/m2
08:33 60.8 °F /  16 °C 37.6 °F /  3.1 °C 30.32in /  1026.6hPa NNE 2.0mph /  3.2km/h 3.0mph /  4.8km/h 42% 0.00in /  0mm 381.0 W/m2
08:39 62.2 °F /  16.8 °C 37.6 °F /  3.1 °C 30.31in /  1026.3hPa Calm   3.0mph /  4.8km/h 40% 0.00in /  0mm 401.0 W/m2
08:45 63.1 °F /  17.3 °C 37.8 °F /  3.2 °C 30.32in /  1026.6hPa Calm     39% 0.00in /  0mm 417.0 W/m2
08:51 63.9 °F /  17.7 °C 37.8 °F /  3.2 °C 30.32in /  1026.6hPa Calm     38% 0.00in /  0mm 436.0 W/m2
08:57 64.2 °F /  17.9 °C 36.7 °F /  2.6 °C 30.32in /  1026.6hPa NW 0.9mph /  1.4km/h 2.0mph /  3.2km/h 36% 0.00in /  0mm 452.0 W/m2
09:04 65.1 °F /  18.4 °C 37.6 °F /  3.1 °C 30.32in /  1026.6hPa Calm     36% 0.00in /  0mm 468.0 W/m2
09:10 66.0 °F /  18.9 °C 36.9 °F /  2.7 °C 30.32in /  1026.6hPa Calm   4.0mph /  6.4km/h 34% 0.00in /  0mm 487.0 W/m2
09:14 66.4 °F /  19.1 °C 37.9 °F /  3.3 °C 30.32in /  1026.6hPa NW 2.0mph /  3.2km/h 3.0mph /  4.8km/h 35% 0.00in /  0mm 494.0 W/m2
09:20 66.7 °F /  19.3 °C 36.7 °F /  2.6 °C 30.32in /  1026.6hPa NNE 2.9mph /  4.7km/h 4.0mph /  6.4km/h 33% 0.00in /  0mm 510.0 W/m2
09:26 67.1 °F /  19.5 °C 37.8 °F /  3.2 °C 30.32in /  1026.6hPa North 2.0mph /  3.2km/h 4.0mph /  6.4km/h 34% 0.00in /  0mm 522.0 W/m2
09:32 67.5 °F /  19.7 °C 37.4 °F /  3 °C 30.32in /  1026.6hPa NNW 0.9mph /  1.4km/h 4.0mph /  6.4km/h 33% 0.00in /  0mm 534.0 W/m2
09:38 67.8 °F /  19.9 °C 37.6 °F /  3.1 °C 30.32in /  1026.6hPa Calm   2.0mph /  3.2km/h 33% 0.00in /  0mm 547.0 W/m2
09:45 67.8 °F /  19.9 °C 37.6 °F /  3.1 °C 30.32in /  1026.6hPa Calm   1.0mph /  1.6km/h 33% 0.00in /  0mm 557.0 W/m2
09:51 67.6 °F /  19.8 °C 38.3 °F /  3.5 °C 30.32in /  1026.6hPa Calm   5.0mph /  8km/h 34% 0.00in /  0mm 566.0 W/m2
09:57 67.5 °F /  19.7 °C 37.4 °F /  3 °C 30.32in /  1026.6hPa NE 2.0mph /  3.2km/h 5.0mph /  8km/h 33% 0.00in /  0mm 582.0 W/m2
10:03 67.5 °F /  19.7 °C 37.4 °F /  3 °C 30.32in /  1026.6hPa Calm   7.0mph /  11.3km/h 33% 0.00in /  0mm 589.0 W/m2
10:09 67.8 °F /  19.9 °C 38.5 °F /  3.6 °C 30.32in /  1026.6hPa Calm   3.0mph /  4.8km/h 34% 0.00in /  0mm 601.0 W/m2
10:15 67.8 °F /  19.9 °C 37.6 °F /  3.1 °C 30.32in /  1026.6hPa Calm   4.0mph /  6.4km/h 33% 0.00in /  0mm 612.0 W/m2
10:21 68.4 °F /  20.2 °C 38.1 °F /  3.4 °C 30.32in /  1026.6hPa NNW 0.9mph /  1.4km/h 2.0mph /  3.2km/h 33% 0.00in /  0mm 612.0 W/m2
10:27 68.7 °F /  20.4 °C 38.5 °F /  3.6 °C 30.32in /  1026.6hPa NNW 2.9mph /  4.7km/h 7.0mph /  11.3km/h 33% 0.00in /  0mm 635.0 W/m2
10:34 69.3 °F /  20.7 °C 38.1 °F /  3.4 °C 30.32in /  1026.6hPa NW 4.9mph /  7.9km/h 8.0mph /  12.9km/h 32% 0.00in /  0mm 643.0 W/m2
10:40 69.6 °F /  20.9 °C 37.6 °F /  3.1 °C 30.32in /  1026.6hPa NNE 2.9mph /  4.7km/h 6.0mph /  9.7km/h 31% 0.00in /  0mm 649.0 W/m2
10:46 70.0 °F /  21.1 °C 37.9 °F /  3.3 °C 30.31in /  1026.3hPa NW 2.0mph /  3.2km/h 4.0mph /  6.4km/h 31% 0.00in /  0mm 656.0 W/m2
10:52 70.0 °F /  21.1 °C 37.0 °F /  2.8 °C 30.31in /  1026.3hPa NNW 2.0mph /  3.2km/h 6.0mph /  9.7km/h 30% 0.00in /  0mm 663.0 W/m2
10:58 70.2 °F /  21.2 °C 38.1 °F /  3.4 °C 30.31in /  1026.3hPa Calm   4.0mph /  6.4km/h 31% 0.00in /  0mm 670.0 W/m2
11:10 70.3 °F /  21.3 °C 38.3 °F /  3.5 °C 30.31in /  1026.3hPa Calm   7.0mph /  11.3km/h 31% 0.00in /  0mm 680.0 W/m2
11:17 70.5 °F /  21.4 °C 37.6 °F /  3.1 °C 30.30in /  1026hPa North 4.9mph /  7.9km/h 8.0mph /  12.9km/h 30% 0.00in /  0mm 682.0 W/m2
11:23 70.5 °F /  21.4 °C 37.6 °F /  3.1 °C 30.30in /  1026hPa Calm   2.0mph /  3.2km/h 30% 0.00in /  0mm 684.0 W/m2
11:29 70.7 °F /  21.5 °C 37.8 °F /  3.2 °C 30.30in /  1026hPa Calm   3.0mph /  4.8km/h 30% 0.00in /  0mm 687.0 W/m2
11:35 71.1 °F /  21.7 °C 38.1 °F /  3.4 °C 30.29in /  1025.6hPa NNW 4.0mph /  6.4km/h 4.0mph /  6.4km/h 30% 0.00in /  0mm 687.0 W/m2
11:41 71.2 °F /  21.8 °C 36.5 °F /  2.5 °C 30.29in /  1025.6hPa NNW 8.1mph /  13km/h 9.0mph /  14.5km/h 28% 0.00in /  0mm 691.0 W/m2
11:47 71.2 °F /  21.8 °C 37.4 °F /  3 °C 30.29in /  1025.6hPa NW 2.9mph /  4.7km/h 3.0mph /  4.8km/h 29% 0.00in /  0mm 693.0 W/m2
11:53 71.2 °F /  21.8 °C 36.5 °F /  2.5 °C 30.29in /  1025.6hPa NE 4.9mph /  7.9km/h 7.0mph /  11.3km/h 28% 0.00in /  0mm 691.0 W/m2
11:59 71.4 °F /  21.9 °C 36.7 °F /  2.6 °C 30.28in /  1025.3hPa NNW 4.0mph /  6.4km/h 7.0mph /  11.3km/h 28% 0.00in /  0mm 691.0 W/m2
12:05 71.8 °F /  22.1 °C 36.0 °F /  2.2 °C 30.28in /  1025.3hPa North 2.0mph /  3.2km/h 6.0mph /  9.7km/h 27% 0.00in /  0mm 689.0 W/m2
12:12 72.0 °F /  22.2 °C 37.0 °F /  2.8 °C 30.28in /  1025.3hPa Calm   3.0mph /  4.8km/h 28% 0.00in /  0mm 686.0 W/m2
12:18 72.3 °F /  22.4 °C 36.5 °F /  2.5 °C 30.28in /  1025.3hPa NNW 0.9mph /  1.4km/h 7.0mph /  11.3km/h 27% 0.00in /  0mm 684.0 W/m2
12:24 72.3 °F /  22.4 °C 37.4 °F /  3 °C 30.27in /  1024.9hPa WNW 0.9mph /  1.4km/h 3.0mph /  4.8km/h 28% 0.00in /  0mm 677.0 W/m2
12:30 72.5 °F /  22.5 °C 36.7 °F /  2.6 °C 30.27in /  1024.9hPa North 4.0mph /  6.4km/h 5.0mph /  8km/h 27% 0.00in /  0mm 675.0 W/m2
12:36 72.5 °F /  22.5 °C 36.7 °F /  2.6 °C 30.26in /  1024.6hPa NE 2.0mph /  3.2km/h 5.0mph /  8km/h 27% 0.00in /  0mm 666.0 W/m2
12:42 72.7 °F /  22.6 °C 36.9 °F /  2.7 °C 30.26in /  1024.6hPa Calm   3.0mph /  4.8km/h 27% 0.00in /  0mm 663.0 W/m2
12:48 72.7 °F /  22.6 °C 36.9 °F /  2.7 °C 30.26in /  1024.6hPa Calm   6.0mph /  9.7km/h 27% 0.00in /  0mm 657.0 W/m2
12:54 72.7 °F /  22.6 °C 36.9 °F /  2.7 °C 30.26in /  1024.6hPa NNE 0.9mph /  1.4km/h 2.0mph /  3.2km/h 27% 0.00in /  0mm 652.0 W/m2
13:01 73.0 °F /  22.8 °C 36.1 °F /  2.3 °C 30.25in /  1024.3hPa NNW 6.0mph /  9.7km/h 6.0mph /  9.7km/h 26% 0.00in /  0mm 642.0 W/m2
13:07 73.2 °F /  22.9 °C 37.2 °F /  2.9 °C 30.25in /  1024.3hPa NNW 0.9mph /  1.4km/h 3.0mph /  4.8km/h 27% 0.00in /  0mm 635.0 W/m2
13:13 73.2 °F /  22.9 °C 36.3 °F /  2.4 °C 30.25in /  1024.3hPa NW 2.9mph /  4.7km/h 7.0mph /  11.3km/h 26% 0.00in /  0mm 626.0 W/m2
13:19 73.2 °F /  22.9 °C 36.3 °F /  2.4 °C 30.25in /  1024.3hPa West 2.9mph /  4.7km/h 5.0mph /  8km/h 26% 0.00in /  0mm 617.0 W/m2
13:25 73.6 °F /  23.1 °C 36.5 °F /  2.5 °C 30.24in /  1023.9hPa Calm   1.0mph /  1.6km/h 26% 0.00in /  0mm 608.0 W/m2
13:31 73.2 °F /  22.9 °C 36.3 °F /  2.4 °C 30.24in /  1023.9hPa NNW 0.9mph /  1.4km/h 3.0mph /  4.8km/h 26% 0.00in /  0mm 598.0 W/m2
13:37 73.4 °F /  23 °C 36.5 °F /  2.5 °C 30.24in /  1023.9hPa Calm   4.0mph /  6.4km/h 26% 0.00in /  0mm 585.0 W/m2
13:43 73.6 °F /  23.1 °C 36.5 °F /  2.5 °C 30.24in /  1023.9hPa West 2.0mph /  3.2km/h 3.0mph /  4.8km/h 26% 0.00in /  0mm 575.0 W/m2
13:49 73.6 °F /  23.1 °C 37.6 °F /  3.1 °C 30.24in /  1023.9hPa Calm   1.0mph /  1.6km/h 27% 0.00in /  0mm 559.0 W/m2
13:56 73.8 °F /  23.2 °C 36.7 °F /  2.6 °C 30.23in /  1023.6hPa NNW 0.9mph /  1.4km/h 3.0mph /  4.8km/h 26% 0.00in /  0mm 548.0 W/m2
14:02 73.9 °F /  23.3 °C 36.0 °F /  2.2 °C 30.23in /  1023.6hPa NW 0.9mph /  1.4km/h 3.0mph /  4.8km/h 25% 0.00in /  0mm 534.0 W/m2
14:08 73.9 °F /  23.3 °C 36.9 °F /  2.7 °C 30.23in /  1023.6hPa NNE 2.0mph /  3.2km/h 5.0mph /  8km/h 26% 0.00in /  0mm 519.0 W/m2
14:14 73.8 °F /  23.2 °C 36.7 °F /  2.6 °C 30.23in /  1023.6hPa NNW 0.9mph /  1.4km/h 6.0mph /  9.7km/h 26% 0.00in /  0mm 506.0 W/m2
14:20 73.6 °F /  23.1 °C 36.5 °F /  2.5 °C 30.23in /  1023.6hPa NNW 2.9mph /  4.7km/h 5.0mph /  8km/h 26% 0.00in /  0mm 489.0 W/m2
14:26 73.4 °F /  23 °C 36.5 °F /  2.5 °C 30.23in /  1023.6hPa NNW 0.9mph /  1.4km/h 5.0mph /  8km/h 26% 0.00in /  0mm 475.0 W/m2
14:32 73.4 °F /  23 °C 35.4 °F /  1.9 °C 30.23in /  1023.6hPa NNE 2.9mph /  4.7km/h 6.0mph /  9.7km/h 25% 0.00in /  0mm 459.0 W/m2
14:39 73.6 °F /  23.1 °C 35.6 °F /  2 °C 30.23in /  1023.6hPa North 0.9mph /  1.4km/h 4.0mph /  6.4km/h 25% 0.00in /  0mm 439.0 W/m2
14:45 73.8 °F /  23.2 °C 35.8 °F /  2.1 °C 30.23in /  1023.6hPa NW 0.9mph /  1.4km/h 8.0mph /  12.9km/h 25% 0.00in /  0mm 425.0 W/m2
14:51 73.6 °F /  23.1 °C 35.6 °F /  2 °C 30.22in /  1023.2hPa NNE 4.0mph /  6.4km/h 7.0mph /  11.3km/h 25% 0.00in /  0mm 408.0 W/m2
14:57 73.2 °F /  22.9 °C 36.3 °F /  2.4 °C 30.22in /  1023.2hPa Calm   4.0mph /  6.4km/h 26% 0.00in /  0mm 392.0 W/m2
15:03 73.0 °F /  22.8 °C 35.1 °F /  1.7 °C 30.22in /  1023.2hPa Calm   3.0mph /  4.8km/h 25% 0.00in /  0mm 378.0 W/m2
15:09 73.0 °F /  22.8 °C 34.2 °F /  1.2 °C 30.22in /  1023.2hPa NNW 2.9mph /  4.7km/h 8.0mph /  12.9km/h 24% 0.00in /  0mm 357.0 W/m2
15:20 72.9 °F /  22.7 °C 34.0 °F /  1.1 °C 30.23in /  1023.6hPa NNW 2.9mph /  4.7km/h 6.0mph /  9.7km/h 24% 0.00in /  0mm 234.0 W/m2
15:26 72.7 °F /  22.6 °C 34.9 °F /  1.6 °C 30.22in /  1023.2hPa Calm   4.0mph /  6.4km/h 25% 0.00in /  0mm 40.0 W/m2
15:32 72.3 °F /  22.4 °C 33.4 °F /  0.8 °C 30.22in /  1023.2hPa Calm     24% 0.00in /  0mm 39.0 W/m2
15:38 72.1 °F /  22.3 °C 33.4 °F /  0.8 °C 30.22in /  1023.2hPa NNW 2.9mph /  4.7km/h 6.0mph /  9.7km/h 24% 0.00in /  0mm 37.0 W/m2
15:44 71.8 °F /  22.1 °C 34.0 °F /  1.1 °C 30.23in /  1023.6hPa NNW 2.9mph /  4.7km/h 7.0mph /  11.3km/h 25% 0.00in /  0mm 35.0 W/m2
15:50 71.6 °F /  22 °C 34.0 °F /  1.1 °C 30.22in /  1023.2hPa NNE 4.9mph /  7.9km/h 7.0mph /  11.3km/h 25% 0.00in /  0mm 33.0 W/m2
15:56 71.4 °F /  21.9 °C 33.8 °F /  1 °C 30.22in /  1023.2hPa Calm   3.0mph /  4.8km/h 25% 0.00in /  0mm 30.0 W/m2
16:02 71.1 °F /  21.7 °C 33.4 °F /  0.8 °C 30.23in /  1023.6hPa NNW 2.0mph /  3.2km/h 5.0mph /  8km/h 25% 0.00in /  0mm 26.0 W/m2
16:08 70.9 °F /  21.6 °C 34.3 °F /  1.3 °C 30.23in /  1023.6hPa Calm   4.0mph /  6.4km/h 26% 0.00in /  0mm 23.0 W/m2
16:14 70.5 °F /  21.4 °C 34.0 °F /  1.1 °C 30.23in /  1023.6hPa NW 2.9mph /  4.7km/h 4.0mph /  6.4km/h 26% 0.00in /  0mm 21.0 W/m2
16:21 70.3 °F /  21.3 °C 33.8 °F /  1 °C 30.23in /  1023.6hPa NNW 0.9mph /  1.4km/h 7.0mph /  11.3km/h 26% 0.00in /  0mm 19.0 W/m2
16:27 70.2 °F /  21.2 °C 34.7 °F /  1.5 °C 30.24in /  1023.9hPa North 0.9mph /  1.4km/h 2.0mph /  3.2km/h 27% 0.00in /  0mm 18.0 W/m2
16:33 69.6 °F /  20.9 °C 34.2 °F /  1.2 °C 30.24in /  1023.9hPa NW 0.9mph /  1.4km/h 3.0mph /  4.8km/h 27% 0.00in /  0mm 18.0 W/m2
16:39 69.4 °F /  20.8 °C 34.0 °F /  1.1 °C 30.24in /  1023.9hPa Calm   1.0mph /  1.6km/h 27% 0.00in /  0mm 16.0 W/m2
16:45 69.3 °F /  20.7 °C 34.7 °F /  1.5 °C 30.24in /  1023.9hPa Calm   1.0mph /  1.6km/h 28% 0.00in /  0mm 14.0 W/m2
16:51 68.7 °F /  20.4 °C 34.3 °F /  1.3 °C 30.24in /  1023.9hPa WSW 2.0mph /  3.2km/h 3.0mph /  4.8km/h 28% 0.00in /  0mm 12.0 W/m2
16:57 68.4 °F /  20.2 °C 34.0 °F /  1.1 °C 30.24in /  1023.9hPa NNW 2.0mph /  3.2km/h 3.0mph /  4.8km/h 28% 0.00in /  0mm 11.0 W/m2
17:03 68.2 °F /  20.1 °C 33.8 °F /  1 °C 30.24in /  1023.9hPa Calm   5.0mph /  8km/h 28% 0.00in /  0mm 9.0 W/m2
17:09 67.8 °F /  19.9 °C 34.3 °F /  1.3 °C 30.24in /  1023.9hPa Calm   1.0mph /  1.6km/h 29% 0.00in /  0mm 5.0 W/m2
17:16 67.5 °F /  19.7 °C 34.2 °F /  1.2 °C 30.25in /  1024.3hPa Calm     29% 0.00in /  0mm 0.0 W/m2
17:22 66.7 °F /  19.3 °C 34.3 °F /  1.3 °C 30.25in /  1024.3hPa Calm   1.0mph /  1.6km/h 30% 0.00in /  0mm 0.0 W/m2
17:28 66.2 °F /  19 °C 34.7 °F /  1.5 °C 30.25in /  1024.3hPa Calm     31% 0.00in /  0mm 0.0 W/m2
17:34 65.5 °F /  18.6 °C 35.6 °F /  2 °C 30.25in /  1024.3hPa Calm     33% 0.00in /  0mm 0.0 W/m2
17:40 64.8 °F /  18.2 °C 35.1 °F /  1.7 °C 30.26in /  1024.6hPa Calm     33% 0.00in /  0mm 0.0 W/m2
17:46 63.9 °F /  17.7 °C 35.6 °F /  2 °C 30.26in /  1024.6hPa Calm     35% 0.00in /  0mm 0.0 W/m2
17:52 63.1 °F /  17.3 °C 35.1 °F /  1.7 °C 30.26in /  1024.6hPa Calm     35% 0.00in /  0mm 0.0 W/m2
17:59 62.2 °F /  16.8 °C 34.9 °F /  1.6 °C 30.26in /  1024.6hPa Calm     36% 0.00in /  0mm 0.0 W/m2
18:05 61.5 °F /  16.4 °C 34.3 °F /  1.3 °C 30.26in /  1024.6hPa Calm     36% 0.00in /  0mm 0.0 W/m2
18:11 61.0 °F /  16.1 °C 34.5 °F /  1.4 °C 30.26in /  1024.6hPa Calm     37% 0.00in /  0mm 0.0 W/m2
18:17 60.3 °F /  15.7 °C 34.5 °F /  1.4 °C 30.27in /  1024.9hPa Calm     38% 0.00in /  0mm 0.0 W/m2
18:23 59.7 °F /  15.4 °C 34.7 °F /  1.5 °C 30.27in /  1024.9hPa Calm     39% 0.00in /  0mm 0.0 W/m2
18:29 59.2 °F /  15.1 °C 34.9 °F /  1.6 °C 30.27in /  1024.9hPa Calm     40% 0.00in /  0mm 0.0 W/m2
18:35 58.5 °F /  14.7 °C 34.2 °F /  1.2 °C 30.27in /  1024.9hPa Calm     40% 0.00in /  0mm 0.0 W/m2
18:41 57.7 °F /  14.3 °C 34.2 °F /  1.2 °C 30.27in /  1024.9hPa Calm     41% 0.00in /  0mm 0.0 W/m2
18:47 57.4 °F /  14.1 °C 34.5 °F /  1.4 °C 30.27in /  1024.9hPa Calm     42% 0.00in /  0mm 0.0 W/m2
18:53 56.7 °F /  13.7 °C 34.3 °F /  1.3 °C 30.27in /  1024.9hPa Calm     43% 0.00in /  0mm 0.0 W/m2
18:59 56.1 °F /  13.4 °C 34.0 °F /  1.1 °C 30.28in /  1025.3hPa Calm     43% 0.00in /  0mm 0.0 W/m2
19:06 55.8 °F /  13.2 °C 34.2 °F /  1.2 °C 30.28in /  1025.3hPa Calm     44% 0.00in /  0mm 0.0 W/m2
19:12 55.2 °F /  12.9 °C 33.6 °F /  0.9 °C 30.28in /  1025.3hPa Calm     44% 0.00in /  0mm 0.0 W/m2
19:18 54.9 °F /  12.7 °C 34.0 °F /  1.1 °C 30.28in /  1025.3hPa Calm     45% 0.00in /  0mm 0.0 W/m2
19:24 54.3 °F /  12.4 °C 33.4 °F /  0.8 °C 30.28in /  1025.3hPa Calm     45% 0.00in /  0mm 0.0 W/m2
19:30 54.0 °F /  12.2 °C 33.6 °F /  0.9 °C 30.28in /  1025.3hPa Calm     46% 0.00in /  0mm 0.0 W/m2
19:36 53.8 °F /  12.1 °C 33.4 °F /  0.8 °C 30.29in /  1025.6hPa Calm     46% 0.00in /  0mm 0.0 W/m2
19:42 53.2 °F /  11.8 °C 33.4 °F /  0.8 °C 30.29in /  1025.6hPa Calm     47% 0.00in /  0mm 0.0 W/m2
19:49 53.1 °F /  11.7 °C 33.8 °F /  1 °C 30.29in /  1025.6hPa Calm   1.0mph /  1.6km/h 48% 0.00in /  0mm 0.0 W/m2
19:55 52.9 °F /  11.6 °C 33.8 °F /  1 °C 30.29in /  1025.6hPa Calm     48% 0.00in /  0mm 0.0 W/m2
20:01 52.9 °F /  11.6 °C 33.8 °F /  1 °C 30.29in /  1025.6hPa Calm   2.0mph /  3.2km/h 48% 0.00in /  0mm 0.0 W/m2
20:07 52.7 °F /  11.5 °C 33.6 °F /  0.9 °C 30.29in /  1025.6hPa Calm     48% 0.00in /  0mm 0.0 W/m2
20:13 52.3 °F /  11.3 °C 33.3 °F /  0.7 °C 30.29in /  1025.6hPa Calm     48% 0.00in /  0mm 0.0 W/m2
20:20 52.2 °F /  11.2 °C 33.6 °F /  0.9 °C 30.29in /  1025.6hPa Calm     49% 0.00in /  0mm 0.0 W/m2
20:26 52.0 °F /  11.1 °C 33.4 °F /  0.8 °C 30.30in /  1026hPa Calm     49% 0.00in /  0mm 0.0 W/m2
20:33 51.6 °F /  10.9 °C 33.1 °F /  0.6 °C 30.30in /  1026hPa Calm     49% 0.00in /  0mm 0.0 W/m2
20:40 51.4 °F /  10.8 °C 33.4 °F /  0.8 °C 30.30in /  1026hPa Calm   1.0mph /  1.6km/h 50% 0.00in /  0mm 0.0 W/m2
20:46 51.3 °F /  10.7 °C 33.3 °F /  0.7 °C 30.30in /  1026hPa Calm   2.0mph /  3.2km/h 50% 0.00in /  0mm 0.0 W/m2
20:52 51.3 °F /  10.7 °C 33.3 °F /  0.7 °C 30.30in /  1026hPa Calm     50% 0.00in /  0mm 0.0 W/m2
20:58 51.3 °F /  10.7 °C 33.3 °F /  0.7 °C 30.30in /  1026hPa Calm   1.0mph /  1.6km/h 50% 0.00in /  0mm 0.0 W/m2
21:05 51.4 °F /  10.8 °C 33.4 °F /  0.8 °C 30.30in /  1026hPa Calm     50% 0.00in /  0mm 0.0 W/m2
21:11 51.4 °F /  10.8 °C 33.4 °F /  0.8 °C 30.30in /  1026hPa Calm   1.0mph /  1.6km/h 50% 0.00in /  0mm 0.0 W/m2
21:17 51.4 °F /  10.8 °C 33.4 °F /  0.8 °C 30.30in /  1026hPa Calm   1.0mph /  1.6km/h 50% 0.00in /  0mm 0.0 W/m2
21:23 51.4 °F /  10.8 °C 33.4 °F /  0.8 °C 30.30in /  1026hPa Calm   1.0mph /  1.6km/h 50% 0.00in /  0mm 0.0 W/m2
21:29 51.4 °F /  10.8 °C 33.4 °F /  0.8 °C 30.30in /  1026hPa East 0.9mph /  1.4km/h 4.0mph /  6.4km/h 50% 0.00in /  0mm 0.0 W/m2
21:35 51.6 °F /  10.9 °C 33.6 °F /  0.9 °C 30.30in /  1026hPa Calm   1.0mph /  1.6km/h 50% 0.00in /  0mm 0.0 W/m2
21:41 52.0 °F /  11.1 °C 33.4 °F /  0.8 °C 30.31in /  1026.3hPa Calm   2.0mph /  3.2km/h 49% 0.00in /  0mm 0.0 W/m2
21:47 52.2 °F /  11.2 °C 33.6 °F /  0.9 °C 30.31in /  1026.3hPa Calm   1.0mph /  1.6km/h 49% 0.00in /  0mm 0.0 W/m2
21:53 52.2 °F /  11.2 °C 33.6 °F /  0.9 °C 30.31in /  1026.3hPa Calm     49% 0.00in /  0mm 0.0 W/m2
21:59 52.2 °F /  11.2 °C 33.6 °F /  0.9 °C 30.31in /  1026.3hPa Calm     49% 0.00in /  0mm 0.0 W/m2
22:05 52.0 °F /  11.1 °C 34.0 °F /  1.1 °C 30.31in /  1026.3hPa Calm     50% 0.00in /  0mm 0.0 W/m2
22:11 51.4 °F /  10.8 °C 34.0 °F /  1.1 °C 30.31in /  1026.3hPa Calm     51% 0.00in /  0mm 0.0 W/m2
22:18 51.1 °F /  10.6 °C 33.6 °F /  0.9 °C 30.31in /  1026.3hPa Calm   2.0mph /  3.2km/h 51% 0.00in /  0mm 0.0 W/m2
22:24 50.9 °F /  10.5 °C 33.4 °F /  0.8 °C 30.31in /  1026.3hPa Calm   1.0mph /  1.6km/h 51% 0.00in /  0mm 0.0 W/m2
22:30 50.7 °F /  10.4 °C 33.8 °F /  1 °C 30.32in /  1026.6hPa Calm     52% 0.00in /  0mm 0.0 W/m2
22:36 50.5 °F /  10.3 °C 33.6 °F /  0.9 °C 30.32in /  1026.6hPa Calm   2.0mph /  3.2km/h 52% 0.00in /  0mm 0.0 W/m2
22:42 50.4 °F /  10.2 °C 33.4 °F /  0.8 °C 30.32in /  1026.6hPa Calm   1.0mph /  1.6km/h 52% 0.00in /  0mm 0.0 W/m2
22:48 50.2 °F /  10.1 °C 33.6 °F /  0.9 °C 30.32in /  1026.6hPa Calm   1.0mph /  1.6km/h 53% 0.00in /  0mm 0.0 W/m2
22:55 50.2 °F /  10.1 °C 33.6 °F /  0.9 °C 30.32in /  1026.6hPa ESE 0.9mph /  1.4km/h 4.0mph /  6.4km/h 53% 0.00in /  0mm 0.0 W/m2
23:01 50.0 °F /  10 °C 33.6 °F /  0.9 °C 30.32in /  1026.6hPa Calm   3.0mph /  4.8km/h 53% 0.00in /  0mm 0.0 W/m2
23:07 50.0 °F /  10 °C 33.6 °F /  0.9 °C 30.32in /  1026.6hPa Calm   2.0mph /  3.2km/h 53% 0.00in /  0mm 0.0 W/m2
23:13 49.8 °F /  9.9 °C 33.4 °F /  0.8 °C 30.32in /  1026.6hPa Calm     53% 0.00in /  0mm 0.0 W/m2
23:19 49.6 °F /  9.8 °C 33.6 °F /  0.9 °C 30.32in /  1026.6hPa Calm     54% 0.00in /  0mm 0.0 W/m2
23:25 49.3 °F /  9.6 °C 33.8 °F /  1 °C 30.32in /  1026.6hPa Calm     55% 0.00in /  0mm 0.0 W/m2
23:31 48.9 °F /  9.4 °C 34.0 °F /  1.1 °C 30.32in /  1026.6hPa Calm     56% 0.00in /  0mm 0.0 W/m2
23:37 48.6 °F /  9.2 °C 34.0 °F /  1.1 °C 30.32in /  1026.6hPa Calm     57% 0.00in /  0mm 0.0 W/m2
23:43 48.4 °F /  9.1 °C 34.3 °F /  1.3 °C 30.32in /  1026.6hPa Calm     58% 0.00in /  0mm 0.0 W/m2
23:50 48.0 °F /  8.9 °C 34.3 °F /  1.3 °C 30.32in /  1026.6hPa Calm     59% 0.00in /  0mm 0.0 W/m2
23:56 47.7 °F /  8.7 °C 34.0 °F /  1.1 °C 30.32in /  1026.6hPa Calm     59% 0.00in /  0mm 0.0 W/m2
Olympia, Windhoek, Namibia
Compliments of Weather Underground - 3 mb